createdAt,value
2023-01-11T00:00:57.054Z,5.70
2023-01-11T00:04:05.615Z,5.60
2023-01-11T00:07:13.900Z,5.70
2023-01-11T00:10:24.067Z,5.70
2023-01-11T00:13:33.115Z,5.60
2023-01-11T00:16:41.430Z,5.60
2023-01-11T00:19:49.901Z,5.60
2023-01-11T00:22:58.336Z,5.70
2023-01-11T00:26:12.369Z,5.70
2023-01-11T00:29:20.686Z,5.60
2023-01-11T00:32:28.950Z,5.60
2023-01-11T00:35:37.254Z,5.60
2023-01-11T00:38:47.036Z,5.60
2023-01-11T00:42:13.965Z,5.60
2023-01-11T00:45:39.706Z,5.50
2023-01-11T00:48:47.960Z,5.50
2023-01-11T00:51:56.368Z,5.40
2023-01-11T00:55:04.853Z,5.50
2023-01-11T00:58:14.558Z,5.50
2023-01-11T01:01:22.940Z,5.40
2023-01-11T01:04:31.261Z,5.40
2023-01-11T01:07:39.607Z,5.40
2023-01-11T01:10:47.929Z,5.40
2023-01-11T01:14:15.062Z,5.40
2023-01-11T01:17:23.319Z,5.40
2023-01-11T01:20:31.605Z,5.30
2023-01-11T01:23:39.884Z,5.30
2023-01-11T01:26:48.379Z,5.30
2023-01-11T01:29:58.098Z,5.30
2023-01-11T01:33:06.343Z,5.30
2023-01-11T01:36:14.794Z,5.30
2023-01-11T01:39:23.175Z,5.30
2023-01-11T01:42:32.043Z,5.30
2023-01-11T01:45:42.360Z,5.30
2023-01-11T01:48:56.719Z,5.20
2023-01-11T01:52:05.328Z,5.20
2023-01-11T01:55:18.556Z,5.20
2023-01-11T01:58:31.611Z,5.20
2023-01-11T02:01:50.595Z,5.10
2023-01-11T02:04:59.944Z,5.10
2023-01-11T02:11:48.734Z,5.10
2023-01-11T02:14:57.458Z,5.10
2023-01-11T02:18:12.607Z,5.00
2023-01-11T02:21:26.707Z,5.00
2023-01-11T02:25:04.600Z,4.90
2023-01-11T02:28:19.053Z,4.90
2023-01-11T02:31:32.854Z,4.90
2023-01-11T02:34:47.474Z,4.90
2023-01-11T02:38:03.131Z,4.90
2023-01-11T02:41:20.494Z,4.90
2023-01-11T02:44:54.829Z,4.90
2023-01-11T02:48:06.857Z,4.90
2023-01-11T02:51:19.732Z,4.90
2023-01-11T02:54:28.322Z,4.90
2023-01-11T02:57:39.743Z,4.90
2023-01-11T03:00:50.298Z,4.90
2023-01-11T03:03:58.871Z,5.00
2023-01-11T03:07:25.172Z,5.10
2023-01-11T03:10:43.851Z,5.10
2023-01-11T03:14:01.382Z,5.00
2023-01-11T03:17:26.237Z,5.00
2023-01-11T03:20:39.722Z,5.00
2023-01-11T03:24:00.091Z,5.00
2023-01-11T03:27:18.447Z,5.00
2023-01-11T03:30:34.301Z,5.00
2023-01-11T03:33:53.416Z,5.00
2023-01-11T03:37:06.541Z,5.00
2023-01-11T03:40:19.339Z,5.00
2023-01-11T03:43:30.586Z,5.00
2023-01-11T03:46:44.937Z,5.00
2023-01-11T03:49:58.831Z,5.10
2023-01-11T03:53:09.332Z,5.10
2023-01-11T03:56:22.059Z,5.10
2023-01-11T03:59:30.530Z,5.10
2023-01-11T04:02:42.038Z,5.10
2023-01-11T04:05:54.666Z,5.10
2023-01-11T04:09:02.996Z,5.20
2023-01-11T04:12:11.369Z,5.20
2023-01-11T04:15:19.736Z,5.20
2023-01-11T04:18:28.134Z,5.20
2023-01-11T04:21:37.873Z,5.20
2023-01-11T04:24:46.212Z,5.20
2023-01-11T04:27:54.566Z,5.20
2023-01-11T04:31:02.983Z,5.20
2023-01-11T04:34:12.805Z,5.20
2023-01-11T04:37:22.594Z,5.20
2023-01-11T04:40:31.057Z,5.20
2023-01-11T04:43:38.376Z,5.20
2023-01-11T04:47:00.574Z,5.20
2023-01-11T04:50:11.914Z,5.20
2023-01-11T04:53:21.615Z,5.20
2023-01-11T04:56:30.352Z,5.20
2023-01-11T04:59:38.701Z,5.20
2023-01-11T05:02:47.005Z,5.20
2023-01-11T05:05:58.433Z,5.20
2023-01-11T05:09:11.991Z,5.20
2023-01-11T05:12:20.256Z,5.20
2023-01-11T05:15:28.562Z,5.30
2023-01-11T05:18:36.997Z,5.30
2023-01-11T05:21:45.465Z,5.30
2023-01-11T05:24:55.246Z,5.30
2023-01-11T05:28:03.535Z,5.30
2023-01-11T05:31:12.027Z,5.30
2023-01-11T05:34:20.536Z,5.30
2023-01-11T05:37:28.838Z,5.40
2023-01-11T05:40:38.620Z,5.40
2023-01-11T05:44:07.093Z,5.40
2023-01-11T05:47:15.401Z,5.40
2023-01-11T05:50:23.681Z,5.50
2023-01-11T05:53:31.972Z,5.50
2023-01-11T05:56:43.047Z,5.50
2023-01-11T05:59:51.391Z,5.50
2023-01-11T06:03:01.935Z,5.50
2023-01-11T06:06:10.325Z,5.50
2023-01-11T06:09:18.575Z,5.50
2023-01-11T06:12:28.228Z,5.50
2023-01-11T06:15:37.623Z,5.50
2023-01-11T06:18:47.936Z,5.60
2023-01-11T06:21:56.235Z,5.60
2023-01-11T06:25:04.670Z,5.60
2023-01-11T06:28:14.840Z,5.60
2023-01-11T06:31:23.189Z,5.60
2023-01-11T06:34:31.547Z,5.70
2023-01-11T06:37:39.839Z,5.70
2023-01-11T06:40:53.917Z,5.70
2023-01-11T06:44:03.671Z,5.70
2023-01-11T06:47:11.987Z,5.70
2023-01-11T06:50:20.462Z,5.80
2023-01-11T06:53:29.688Z,5.80
2023-01-11T06:56:38.031Z,5.80
2023-01-11T06:59:47.768Z,5.90
2023-01-11T07:02:56.254Z,6.00
2023-01-11T07:06:04.808Z,6.00
2023-01-11T07:09:13.146Z,6.10
2023-01-11T07:12:21.475Z,6.30
2023-01-11T07:15:31.386Z,6.40
2023-01-11T07:18:39.879Z,6.50
2023-01-11T07:21:48.155Z,6.70
2023-01-11T07:24:56.479Z,6.80
2023-01-11T07:28:06.702Z,6.80
2023-01-11T07:31:16.381Z,6.80
2023-01-11T07:34:25.446Z,6.90
2023-01-11T07:37:34.251Z,7.00
2023-01-11T07:40:42.873Z,7.00
2023-01-11T07:43:50.312Z,7.00
2023-01-11T07:47:00.224Z,7.00
2023-01-11T07:50:09.770Z,7.10
2023-01-11T07:53:19.027Z,7.10
2023-01-11T07:56:27.308Z,7.10
2023-01-11T07:59:35.615Z,7.20
2023-01-11T08:02:45.421Z,7.20
2023-01-11T08:05:54.321Z,7.20
2023-01-11T08:09:02.815Z,7.20
2023-01-11T08:12:28.319Z,7.20
2023-01-11T08:15:37.446Z,7.30
2023-01-11T08:18:47.348Z,7.30
2023-01-11T08:21:55.755Z,7.40
2023-01-11T08:25:04.852Z,7.50
2023-01-11T08:28:13.422Z,7.50
2023-01-11T08:31:22.031Z,7.60
2023-01-11T08:34:33.032Z,7.70
2023-01-11T08:37:42.224Z,7.70
2023-01-11T08:40:50.538Z,7.80
2023-01-11T08:43:58.794Z,7.80
2023-01-11T08:47:07.493Z,7.80
2023-01-11T08:50:18.759Z,7.80
2023-01-11T08:53:27.859Z,7.80
2023-01-11T08:56:36.518Z,7.80
2023-01-11T08:59:44.903Z,7.80
2023-01-11T09:02:53.316Z,7.80
2023-01-11T09:06:03.189Z,7.80
2023-01-11T09:09:11.494Z,7.80
2023-01-11T09:12:20.192Z,7.80
2023-01-11T09:15:28.767Z,7.80
2023-01-11T09:18:37.076Z,7.80
2023-01-11T09:21:46.981Z,7.80
2023-01-11T09:24:55.465Z,7.80
2023-01-11T09:28:03.806Z,7.80
2023-01-11T09:31:12.229Z,7.90
2023-01-11T09:34:21.159Z,7.90
2023-01-11T09:37:30.866Z,7.90
2023-01-11T09:40:46.250Z,7.90
2023-01-11T09:44:04.645Z,7.90
2023-01-11T09:47:19.527Z,7.90
2023-01-11T09:50:31.069Z,7.90
2023-01-11T09:53:42.777Z,7.90
2023-01-11T09:57:00.478Z,7.90
2023-01-11T10:00:19.977Z,7.90
2023-01-11T10:03:48.961Z,8.00
2023-01-11T10:07:23.076Z,8.00
2023-01-11T10:18:25.909Z,8.00
2023-01-11T10:18:28.985Z,8.00
2023-01-11T10:21:47.403Z,8.00
2023-01-11T10:25:05.512Z,8.10
2023-01-11T10:28:25.098Z,8.10
2023-01-11T10:31:49.079Z,8.10
2023-01-11T10:35:14.403Z,8.10
2023-01-11T10:38:49.000Z,8.10
2023-01-11T10:42:10.680Z,8.10
2023-01-11T10:45:28.492Z,8.10
2023-01-11T10:48:39.655Z,8.10
2023-01-11T10:51:49.222Z,8.20
2023-01-11T10:54:58.970Z,8.20
2023-01-11T10:58:15.467Z,8.20
2023-01-11T11:01:51.521Z,8.30
2023-01-11T11:05:12.077Z,8.40
2023-01-11T11:08:27.789Z,8.50
2023-01-11T11:11:40.776Z,8.50
2023-01-11T11:14:57.558Z,8.50
2023-01-11T11:18:07.451Z,8.60
2023-01-11T11:21:23.091Z,8.60
2023-01-11T11:24:38.081Z,8.70
2023-01-11T11:27:49.851Z,8.80
2023-01-11T11:31:01.140Z,9.00
2023-01-11T11:34:17.114Z,8.90
2023-01-11T11:37:28.340Z,9.10
2023-01-11T11:40:38.346Z,9.10
2023-01-11T11:43:48.460Z,9.00
2023-01-11T11:47:01.510Z,8.90
2023-01-11T11:50:43.615Z,8.90
2023-01-11T11:53:55.866Z,8.80
2023-01-11T11:57:16.779Z,8.70
2023-01-11T12:00:28.837Z,8.60
2023-01-11T12:03:37.219Z,8.60
2023-01-11T12:06:49.344Z,8.70
2023-01-11T12:10:01.221Z,8.80
2023-01-11T12:13:31.111Z,8.90
2023-01-11T12:16:41.911Z,8.90
2023-01-11T12:19:50.722Z,8.90
2023-01-11T12:23:18.111Z,8.90
2023-01-11T12:26:30.491Z,8.80
2023-01-11T12:29:52.208Z,8.80
2023-01-11T12:33:32.157Z,8.80
2023-01-11T12:36:49.331Z,8.70
2023-01-11T12:40:08.147Z,8.60
2023-01-11T12:44:02.975Z,8.60
2023-01-11T12:47:29.835Z,8.50
2023-01-11T12:50:51.156Z,8.40
2023-01-11T12:54:14.132Z,8.40
2023-01-11T12:57:34.020Z,8.40
2023-01-11T13:01:23.546Z,8.30
2023-01-11T13:04:57.860Z,8.30
2023-01-11T13:08:13.724Z,8.20
2023-01-11T13:11:38.395Z,8.20
2023-01-11T13:15:01.980Z,8.20
2023-01-11T13:18:22.113Z,8.10
2023-01-11T13:21:34.075Z,8.10
2023-01-11T13:24:47.006Z,8.10
2023-01-11T13:27:57.987Z,8.10
2023-01-11T13:31:11.721Z,8.10
2023-01-11T13:34:24.476Z,8.00
2023-01-11T13:37:38.827Z,8.00
2023-01-11T13:40:50.686Z,8.00
2023-01-11T13:44:03.539Z,8.00
2023-01-11T13:47:20.347Z,7.90
2023-01-11T13:50:32.207Z,7.90
2023-01-11T13:53:49.416Z,7.80
2023-01-11T13:57:04.380Z,7.80
2023-01-11T14:00:21.878Z,7.70
2023-01-11T14:03:37.854Z,7.70
2023-01-11T14:07:02.196Z,7.70
2023-01-11T14:10:26.269Z,7.70
2023-01-11T14:14:10.383Z,7.60
2023-01-11T14:17:30.046Z,7.60
2023-01-11T14:20:47.325Z,7.40
2023-01-11T14:23:56.192Z,7.40
2023-01-11T14:27:33.199Z,7.40
2023-01-11T14:31:20.306Z,7.30
2023-01-11T14:35:07.937Z,7.30
2023-01-11T14:38:53.653Z,7.30
2023-01-11T14:42:29.985Z,7.20
2023-01-11T14:46:02.443Z,7.20
2023-01-11T14:49:22.927Z,7.20
2023-01-11T14:52:39.911Z,7.20
2023-01-11T14:55:50.200Z,7.10
2023-01-11T14:59:04.340Z,7.10
2023-01-11T15:02:27.479Z,7.10
2023-01-11T15:05:39.116Z,7.10
2023-01-11T15:08:50.263Z,7.10
2023-01-11T15:12:13.562Z,7.10
2023-01-11T15:15:43.780Z,7.00
2023-01-11T15:18:51.351Z,7.00
2023-01-11T15:22:01.979Z,7.00
2023-01-11T15:25:23.100Z,6.90
2023-01-11T15:28:43.813Z,6.90
2023-01-11T15:32:07.591Z,6.90
2023-01-11T15:35:33.609Z,6.90
2023-01-11T15:38:52.166Z,6.90
2023-01-11T15:42:28.487Z,7.00
2023-01-11T15:46:29.958Z,7.00
2023-01-11T15:50:20.569Z,7.00
2023-01-11T15:54:25.064Z,7.00
2023-01-11T15:58:03.703Z,7.00
2023-01-11T16:01:24.278Z,6.90
2023-01-11T16:04:35.013Z,6.90
2023-01-11T16:07:51.897Z,6.90
2023-01-11T16:11:09.702Z,6.80
2023-01-11T16:14:40.354Z,6.80
2023-01-11T16:17:49.542Z,6.80
2023-01-11T16:21:02.359Z,6.80
2023-01-11T16:24:18.741Z,6.70
2023-01-11T16:27:29.420Z,6.70
2023-01-11T16:30:37.712Z,6.60
2023-01-11T16:33:49.592Z,6.60
2023-01-11T16:36:58.566Z,6.60
2023-01-11T16:40:14.672Z,6.60
2023-01-11T16:43:27.740Z,6.50
2023-01-11T16:47:13.329Z,6.40
2023-01-11T16:50:25.306Z,6.40
2023-01-11T16:53:34.975Z,6.40
2023-01-11T16:56:50.248Z,6.40
2023-01-11T17:00:02.455Z,6.40
2023-01-11T17:03:26.272Z,6.40
2023-01-11T17:06:36.099Z,6.40
2023-01-11T17:09:44.449Z,6.30
2023-01-11T17:13:36.766Z,6.30
2023-01-11T17:16:48.993Z,6.30
2023-01-11T17:19:59.949Z,6.30
2023-01-11T17:23:08.392Z,6.20
2023-01-11T17:26:20.705Z,6.10
2023-01-11T17:29:34.639Z,5.90
2023-01-11T17:32:46.812Z,5.80
2023-01-11T17:35:55.958Z,5.80
2023-01-11T17:39:06.302Z,5.70
2023-01-11T17:42:34.036Z,5.70
2023-01-11T17:45:46.837Z,5.70
2023-01-11T17:48:57.557Z,5.70
2023-01-11T17:52:17.639Z,5.60
2023-01-11T17:55:28.141Z,5.50
2023-01-11T17:58:37.561Z,5.60
2023-01-11T18:01:49.782Z,5.60
2023-01-11T18:05:00.717Z,5.70
2023-01-11T18:08:19.075Z,5.60
2023-01-11T18:11:29.548Z,5.60
2023-01-11T18:14:42.382Z,5.60
2023-01-11T18:17:56.850Z,5.60
2023-01-11T18:21:05.298Z,5.60
2023-01-11T18:24:35.586Z,5.60
2023-01-11T18:27:46.555Z,5.60
2023-01-11T18:30:58.410Z,5.60
2023-01-11T18:34:08.259Z,5.60
2023-01-11T18:37:16.715Z,5.60
2023-01-11T18:40:25.036Z,5.70
2023-01-11T18:43:33.351Z,5.70
2023-01-11T18:46:41.650Z,5.80
2023-01-11T18:49:52.556Z,5.70
2023-01-11T18:53:00.843Z,5.70
2023-01-11T18:56:09.286Z,5.70
2023-01-11T18:59:17.601Z,5.70
2023-01-11T19:02:28.122Z,5.70
2023-01-11T19:05:38.169Z,5.70
2023-01-11T19:08:46.469Z,5.60
2023-01-11T19:11:54.840Z,5.50
2023-01-11T19:15:03.213Z,5.50
2023-01-11T19:18:11.577Z,5.50
2023-01-11T19:21:21.432Z,5.50
2023-01-11T19:24:29.919Z,5.60
2023-01-11T19:27:38.376Z,5.70
2023-01-11T19:30:46.806Z,5.80
2023-01-11T19:33:55.215Z,5.80
2023-01-11T19:37:04.925Z,5.90
2023-01-11T19:40:13.913Z,6.00
2023-01-11T19:43:22.438Z,6.00
2023-01-11T19:46:32.277Z,6.00
2023-01-11T19:49:41.306Z,6.10
2023-01-11T19:52:51.266Z,6.10
2023-01-11T19:56:02.172Z,6.10
2023-01-11T19:59:11.009Z,6.20
2023-01-11T20:02:21.231Z,6.30
2023-01-11T20:05:29.684Z,6.30
2023-01-11T20:08:41.216Z,6.40
2023-01-11T20:11:50.355Z,6.40
2023-01-11T20:15:01.247Z,6.40
2023-01-11T20:18:09.759Z,6.40
2023-01-11T20:21:18.153Z,6.50
2023-01-11T20:24:29.985Z,6.50
2023-01-11T20:27:38.754Z,6.50
2023-01-11T20:30:47.262Z,6.40
2023-01-11T20:33:56.300Z,6.50
2023-01-11T20:37:04.850Z,6.50
2023-01-11T20:40:20.462Z,6.50
2023-01-11T20:48:27.940Z,6.30
2023-01-11T20:51:37.049Z,6.20
2023-01-11T20:54:45.547Z,6.10
2023-01-11T20:57:55.459Z,6.20
2023-01-11T21:01:05.700Z,6.30
2023-01-11T21:04:14.906Z,6.30
2023-01-11T21:07:23.362Z,6.40
2023-01-11T21:10:31.760Z,6.40
2023-01-11T21:13:42.050Z,6.40
2023-01-11T21:16:50.659Z,6.50
2023-01-11T21:19:59.125Z,6.40
2023-01-11T21:23:07.626Z,6.50
2023-01-11T21:26:18.579Z,6.50
2023-01-11T21:29:28.335Z,6.60
2023-01-11T21:32:36.713Z,6.60
2023-01-11T21:35:45.092Z,6.50
2023-01-11T21:38:54.360Z,6.40
2023-01-11T21:42:03.635Z,6.30
2023-01-11T21:45:13.564Z,6.20
2023-01-11T21:48:21.993Z,6.20
2023-01-11T21:51:30.941Z,6.10
2023-01-11T21:54:39.322Z,6.20
2023-01-11T21:57:47.702Z,6.10
2023-01-11T22:00:57.646Z,6.10
2023-01-11T22:04:07.340Z,6.10
2023-01-11T22:07:15.753Z,6.10
2023-01-11T22:10:24.491Z,6.10
2023-01-11T22:13:34.028Z,6.20
2023-01-11T22:16:44.178Z,6.20
2023-01-11T22:19:53.484Z,6.20
2023-01-11T22:23:01.808Z,6.20
2023-01-11T22:26:12.219Z,6.10
2023-01-11T22:29:20.545Z,6.00
2023-01-11T22:32:31.354Z,5.90
2023-01-11T22:35:39.725Z,5.90
2023-01-11T22:38:48.381Z,5.90
2023-01-11T22:41:57.059Z,5.90
2023-01-11T22:45:07.734Z,5.80
2023-01-11T22:48:17.544Z,5.80
2023-01-11T22:51:27.689Z,5.80
2023-01-11T22:54:36.039Z,5.80
2023-01-11T22:57:44.442Z,5.90
2023-01-11T23:00:52.988Z,5.90
2023-01-11T23:04:03.428Z,5.90
2023-01-11T23:07:11.818Z,5.90
2023-01-11T23:10:21.073Z,5.80
2023-01-11T23:13:46.944Z,5.80
2023-01-11T23:16:55.453Z,5.80
2023-01-11T23:20:05.643Z,5.80
2023-01-11T23:23:14.078Z,5.80
2023-01-11T23:26:22.785Z,5.80
2023-01-11T23:29:31.166Z,5.90
2023-01-11T23:32:39.533Z,5.90
2023-01-11T23:35:56.671Z,5.90
2023-01-11T23:39:06.079Z,5.90
2023-01-11T23:42:29.851Z,5.90
2023-01-11T23:45:38.592Z,6.00
2023-01-11T23:48:46.101Z,5.90
2023-01-11T23:51:57.055Z,5.90
2023-01-11T23:55:06.018Z,5.90
2023-01-11T23:58:14.331Z,5.90
